»·PEaware :: N420FE KLAX-KSAN

N420FE :: KLAX-KSAN

FLIGHT INFORMATION

Flight Status: Arrived
Operator: Privately registered:
United States
More flights under this callsign
Pilot: Julian G. (20224)
Aircraft: CESSNA 172 SKYHAWK
(C172)
More flights by this aircraft type
Origin: KLAX Los Angeles Intl
United States
Destination: KSAN San Diego Intl-Lindbergh
United States
More flights between these airports :: More routes between these airports
Route: +
File this flight plan on PilotEdge
Remarks: cat11
Altitude:
(Current/Filed)
7,500ft
Speed:
(Current/Filed)
0kts
Departed: 02-Oct-18 01:20 PM
Arrived: 02-Oct-18 02:45 PM
Distance/Time
Traveled:
95nm/1:24
Distance/Time
To Go:
Arrived

Flight Plot

Page will automatically refresh every two minutes.


Map Options




Map Legend


Flown Route
Filed Route
Departure Airport
Arrival Airport
Navaid (VOR, NDB)
Fix

Horizontal Profiles

Position Reports

Time Latitude Longitude Heading Altitude Ground
Speed
02-Oct-18 13:09 33.933884 -118.395129 91 109ft 0kts
02-Oct-18 13:10 33.933884 -118.395129 91 109ft 0kts
02-Oct-18 13:11 33.933884 -118.395129 91 109ft 0kts
02-Oct-18 13:12 33.933884 -118.395129 91 109ft 0kts
02-Oct-18 13:13 33.933884 -118.395129 91 109ft 0kts
02-Oct-18 13:14 33.933884 -118.395129 91 109ft 0kts
02-Oct-18 13:15 33.933884 -118.395129 91 109ft 0kts
02-Oct-18 13:16 33.933884 -118.395129 91 109ft 0kts
02-Oct-18 13:17 33.933884 -118.395129 91 109ft 0kts
02-Oct-18 13:18 33.934958 -118.393357 77 109ft 14kts
02-Oct-18 13:19 33.935693 -118.386952 82 109ft 22kts
02-Oct-18 13:20 33.936400 -118.382822 4 109ft 0kts
02-Oct-18 13:21 33.937150 -118.383625 271 109ft 14kts
02-Oct-18 13:22 33.935322 -118.407905 269 719ft 88kts
02-Oct-18 13:23 33.933509 -118.437424 260 1573ft 94kts
02-Oct-18 13:24 33.915143 -118.450926 171 2409ft 97kts
02-Oct-18 13:25 33.887936 -118.445936 171 3051ft 111kts
02-Oct-18 13:26 33.857261 -118.430997 141 3055ft 127kts
02-Oct-18 13:27 33.831244 -118.406017 141 3511ft 109kts
02-Oct-18 13:28 33.808117 -118.383738 141 4052ft 115kts
02-Oct-18 13:29 33.782352 -118.359023 141 4054ft 119kts
02-Oct-18 13:30 33.756454 -118.334197 141 4054ft 119kts
02-Oct-18 13:31 33.734868 -118.309931 111 4415ft 107kts
02-Oct-18 13:32 33.728807 -118.277743 100 5086ft 99kts
02-Oct-18 13:33 33.723553 -118.245724 100 5784ft 96kts
02-Oct-18 13:34 33.718478 -118.214707 100 6441ft 96kts
02-Oct-18 13:35 33.703905 -118.188859 137 7021ft 99kts
02-Oct-18 13:36 33.679998 -118.163569 138 7055ft 124kts
02-Oct-18 13:37 33.653564 -118.135932 138 7054ft 126kts
02-Oct-18 13:38 33.639580 -118.121334 138 7014ft 129kts
02-Oct-18 13:39 33.933884 -118.395129 91 109ft 0kts
02-Oct-18 13:40 33.933884 -118.395129 91 109ft 0kts
02-Oct-18 13:41 33.933884 -118.395129 91 109ft 0kts
02-Oct-18 13:42 33.933884 -118.395129 91 109ft 0kts
02-Oct-18 13:43 33.933884 -118.395129 91 109ft 0kts
02-Oct-18 13:44 33.933884 -118.395129 91 109ft 0kts
02-Oct-18 13:45 33.933884 -118.395129 91 109ft 0kts
02-Oct-18 13:46 33.934541 -118.393732 32 109ft 15kts
02-Oct-18 13:47 33.935742 -118.386586 85 109ft 26kts
02-Oct-18 13:48 33.936422 -118.382851 4 109ft 0kts
02-Oct-18 13:49 33.936964 -118.386448 266 109ft 63kts
02-Oct-18 13:50 33.935180 -118.416549 266 899ft 96kts
02-Oct-18 13:51 33.933574 -118.449828 266 1700ft 101kts
02-Oct-18 13:52 33.929226 -118.482465 220 2499ft 100kts
02-Oct-18 13:53 33.906863 -118.468417 131 3055ft 116kts
02-Oct-18 13:54 33.884813 -118.438830 131 3054ft 119kts
02-Oct-18 13:55 33.863046 -118.409541 131 3286ft 113kts
02-Oct-18 13:56 33.844002 -118.378310 124 3555ft 124kts
02-Oct-18 13:57 33.825700 -118.343939 121 3554ft 121kts
02-Oct-18 13:58 33.807949 -118.309653 121 3554ft 120kts
02-Oct-18 13:59 33.785636 -118.280326 139 3554ft 120kts
02-Oct-18 14:00 33.760399 -118.253947 138 3598ft 119kts
02-Oct-18 14:01 33.737068 -118.229115 138 4191ft 108kts
02-Oct-18 14:02 33.715883 -118.206673 138 4961ft 96kts
02-Oct-18 14:03 33.695982 -118.185627 138 5554ft 105kts
02-Oct-18 14:04 33.672255 -118.160939 138 5555ft 116kts
02-Oct-18 14:05 33.647648 -118.135198 138 5554ft 117kts
02-Oct-18 14:06 33.621815 -118.111266 144 5554ft 117kts
02-Oct-18 14:07 33.595028 -118.088490 144 5554ft 118kts
02-Oct-18 14:08 33.567863 -118.065382 144 5554ft 121kts
02-Oct-18 14:09 33.540583 -118.042179 144 5554ft 120kts
02-Oct-18 14:10 33.513184 -118.018871 144 5554ft 121kts
02-Oct-18 14:11 33.485747 -117.995537 144 5554ft 120kts
02-Oct-18 14:12 33.466701 -117.964387 99 5555ft 120kts
02-Oct-18 14:13 33.461470 -117.925434 98 5554ft 120kts
02-Oct-18 14:14 33.456206 -117.885838 98 5554ft 120kts
02-Oct-18 14:15 33.449357 -117.846847 128 5548ft 120kts
02-Oct-18 14:16 33.427041 -117.818331 116 5554ft 120kts
02-Oct-18 14:17 33.411799 -117.782677 116 5554ft 120kts
02-Oct-18 14:18 33.389143 -117.754186 116 5555ft 120kts
02-Oct-18 14:19 33.373961 -117.718682 116 5554ft 119kts
02-Oct-18 14:20 33.350620 -117.691828 145 5554ft 119kts
02-Oct-18 14:21 33.323256 -117.669468 145 5554ft 119kts
02-Oct-18 14:22 33.295861 -117.647016 145 5554ft 119kts
02-Oct-18 14:23 33.268540 -117.624626 145 5554ft 119kts
02-Oct-18 14:24 33.241010 -117.602072 145 5527ft 120kts
02-Oct-18 14:25 33.213442 -117.579507 145 5527ft 119kts
02-Oct-18 14:26 33.185982 -117.557043 145 5527ft 119kts
02-Oct-18 14:27 33.158368 -117.534576 145 5108ft 116kts
02-Oct-18 14:28 33.132055 -117.513147 145 4608ft 114kts
02-Oct-18 14:29 33.108586 -117.492615 123 4527ft 99kts
02-Oct-18 14:30 33.095256 -117.464045 118 4527ft 98kts
02-Oct-18 14:31 33.081257 -117.433504 118 4231ft 116kts
02-Oct-18 14:32 33.065289 -117.398757 118 3690ft 122kts
02-Oct-18 14:33 33.044997 -117.365742 128 3088ft 124kts
02-Oct-18 14:34 33.025256 -117.336321 128 3060ft 117kts
02-Oct-18 14:35 33.001601 -117.314260 153 3787ft 102kts
02-Oct-18 14:36 32.972647 -117.301073 159 4027ft 122kts
02-Oct-18 14:37 32.941061 -117.288477 161 4027ft 118kts
02-Oct-18 14:38 32.909859 -117.276114 161 4027ft 118kts
02-Oct-18 14:39 32.879837 -117.264216 161 4027ft 118kts
02-Oct-18 14:40 32.848647 -117.251857 161 4027ft 118kts
02-Oct-18 14:41 32.817428 -117.239477 161 4027ft 118kts
02-Oct-18 14:42 32.785589 -117.226757 159 3240ft 147kts
02-Oct-18 14:43 32.753375 -117.201579 136 1332ft 118kts
02-Oct-18 14:44 32.738984 -117.172346 118 817ft 83kts
02-Oct-18 14:45 32.727931 -117.165144 277 650ft 74kts
02-Oct-18 14:46 32.732164 -117.183849 286 18ft 45kts
02-Oct-18 14:47 32.732515 -117.188469 193 18ft 0kts
02-Oct-18 14:48 32.732420 -117.189259 285 19ft 15kts
02-Oct-18 14:49 32.731826 -117.193500 283 18ft 0kts
02-Oct-18 14:50 32.731826 -117.193500 283 18ft 0kts

Navigation Log

Ident Type
Flight plan parsing failed, navigation log unavailable